sensor_id;sensor_type;location;lat;lon;timestamp;P1;durP1;ratioP1;P2;durP2;ratioP2
20589;SDS011;10453;50.810;12.540;2023-06-24T00:01:38;36.80;;;21.60;;
20589;SDS011;10453;50.810;12.540;2023-06-24T00:05:55;48.70;;;22.48;;
20589;SDS011;10453;50.810;12.540;2023-06-24T00:10:14;49.47;;;23.65;;
20589;SDS011;10453;50.810;12.540;2023-06-24T00:14:33;41.97;;;21.85;;
20589;SDS011;10453;50.810;12.540;2023-06-24T00:18:50;44.75;;;23.02;;
20589;SDS011;10453;50.810;12.540;2023-06-24T00:23:08;36.50;;;20.63;;
20589;SDS011;10453;50.810;12.540;2023-06-24T00:27:25;48.55;;;23.80;;
20589;SDS011;10453;50.810;12.540;2023-06-24T00:31:42;38.85;;;23.38;;
20589;SDS011;10453;50.810;12.540;2023-06-24T00:36:00;60.40;;;26.17;;
20589;SDS011;10453;50.810;12.540;2023-06-24T00:40:17;57.80;;;27.60;;
20589;SDS011;10453;50.810;12.540;2023-06-24T00:44:34;78.10;;;31.27;;
20589;SDS011;10453;50.810;12.540;2023-06-24T00:48:54;58.80;;;27.90;;
20589;SDS011;10453;50.810;12.540;2023-06-24T00:57:30;46.15;;;23.60;;
20589;SDS011;10453;50.810;12.540;2023-06-24T01:01:47;48.05;;;24.65;;
20589;SDS011;10453;50.810;12.540;2023-06-24T01:06:10;46.95;;;23.85;;
20589;SDS011;10453;50.810;12.540;2023-06-24T01:10:28;54.15;;;26.45;;
20589;SDS011;10453;50.810;12.540;2023-06-24T01:14:46;52.57;;;26.47;;
20589;SDS011;10453;50.810;12.540;2023-06-24T01:19:08;63.90;;;27.60;;
20589;SDS011;10453;50.810;12.540;2023-06-24T01:28:25;164.63;;;40.90;;
20589;SDS011;10453;50.810;12.540;2023-06-24T01:32:52;71.78;;;29.95;;
20589;SDS011;10453;50.810;12.540;2023-06-24T01:37:59;48.85;;;25.90;;
20589;SDS011;10453;50.810;12.540;2023-06-24T01:42:00;91.25;;;34.75;;
20589;SDS011;10453;50.810;12.540;2023-06-24T01:46:25;68.15;;;29.90;;
20589;SDS011;10453;50.810;12.540;2023-06-24T01:50:48;65.97;;;30.27;;
20589;SDS011;10453;50.810;12.540;2023-06-24T01:55:10;137.85;;;39.88;;
20589;SDS011;10453;50.810;12.540;2023-06-24T01:59:30;69.93;;;29.38;;
20589;SDS011;10453;50.810;12.540;2023-06-24T02:03:50;82.07;;;32.15;;
20589;SDS011;10453;50.810;12.540;2023-06-24T02:08:10;62.35;;;29.23;;
20589;SDS011;10453;50.810;12.540;2023-06-24T02:12:30;62.15;;;28.45;;
20589;SDS011;10453;50.810;12.540;2023-06-24T02:16:48;55.23;;;28.10;;
20589;SDS011;10453;50.810;12.540;2023-06-24T02:21:13;52.97;;;26.73;;
20589;SDS011;10453;50.810;12.540;2023-06-24T02:25:33;88.85;;;34.13;;
20589;SDS011;10453;50.810;12.540;2023-06-24T02:29:51;66.03;;;31.73;;
20589;SDS011;10453;50.810;12.540;2023-06-24T02:34:09;73.25;;;31.67;;
20589;SDS011;10453;50.810;12.540;2023-06-24T02:38:27;124.10;;;36.83;;
20589;SDS011;10453;50.810;12.540;2023-06-24T02:42:44;80.63;;;33.88;;
20589;SDS011;10453;50.810;12.540;2023-06-24T02:47:02;78.60;;;32.13;;
20589;SDS011;10453;50.810;12.540;2023-06-24T02:51:20;63.23;;;29.23;;
20589;SDS011;10453;50.810;12.540;2023-06-24T02:55:37;75.00;;;31.52;;
20589;SDS011;10453;50.810;12.540;2023-06-24T02:59:57;87.43;;;33.67;;
20589;SDS011;10453;50.810;12.540;2023-06-24T03:04:14;63.65;;;28.15;;
20589;SDS011;10453;50.810;12.540;2023-06-24T03:08:32;89.72;;;34.90;;
20589;SDS011;10453;50.810;12.540;2023-06-24T03:12:50;82.72;;;33.80;;
20589;SDS011;10453;50.810;12.540;2023-06-24T03:17:08;70.88;;;34.03;;
20589;SDS011;10453;50.810;12.540;2023-06-24T03:21:26;65.00;;;31.10;;
20589;SDS011;10453;50.810;12.540;2023-06-24T03:25:45;55.65;;;27.65;;
20589;SDS011;10453;50.810;12.540;2023-06-24T03:30:03;60.35;;;29.88;;
20589;SDS011;10453;50.810;12.540;2023-06-24T03:34:20;77.70;;;30.63;;
20589;SDS011;10453;50.810;12.540;2023-06-24T03:38:38;48.42;;;27.55;;
20589;SDS011;10453;50.810;12.540;2023-06-24T03:42:55;68.75;;;29.30;;
20589;SDS011;10453;50.810;12.540;2023-06-24T03:47:12;68.55;;;28.38;;
20589;SDS011;10453;50.810;12.540;2023-06-24T03:51:30;83.30;;;32.25;;
20589;SDS011;10453;50.810;12.540;2023-06-24T03:55:47;68.80;;;30.88;;
20589;SDS011;10453;50.810;12.540;2023-06-24T04:00:05;48.38;;;25.02;;
20589;SDS011;10453;50.810;12.540;2023-06-24T04:04:34;72.50;;;30.88;;
20589;SDS011;10453;50.810;12.540;2023-06-24T04:08:51;96.93;;;34.33;;
20589;SDS011;10453;50.810;12.540;2023-06-24T04:13:09;203.48;;;43.83;;
20589;SDS011;10453;50.810;12.540;2023-06-24T04:17:26;175.15;;;40.95;;
20589;SDS011;10453;50.810;12.540;2023-06-24T04:21:44;151.32;;;41.05;;
20589;SDS011;10453;50.810;12.540;2023-06-24T04:26:01;69.35;;;30.45;;
20589;SDS011;10453;50.810;12.540;2023-06-24T04:30:18;69.00;;;31.77;;
20589;SDS011;10453;50.810;12.540;2023-06-24T04:34:36;66.72;;;33.63;;
20589;SDS011;10453;50.810;12.540;2023-06-24T04:38:53;46.08;;;28.30;;
20589;SDS011;10453;50.810;12.540;2023-06-24T04:43:11;133.02;;;42.30;;
20589;SDS011;10453;50.810;12.540;2023-06-24T04:47:28;82.82;;;32.33;;
20589;SDS011;10453;50.810;12.540;2023-06-24T04:51:45;49.53;;;28.83;;
20589;SDS011;10453;50.810;12.540;2023-06-24T04:56:03;42.72;;;24.10;;
20589;SDS011;10453;50.810;12.540;2023-06-24T05:00:20;36.50;;;23.90;;
20589;SDS011;10453;50.810;12.540;2023-06-24T05:04:40;64.28;;;31.83;;
20589;SDS011;10453;50.810;12.540;2023-06-24T05:08:58;63.30;;;31.73;;
20589;SDS011;10453;50.810;12.540;2023-06-24T05:13:15;47.13;;;25.23;;
20589;SDS011;10453;50.810;12.540;2023-06-24T05:17:33;41.63;;;25.25;;
20589;SDS011;10453;50.810;12.540;2023-06-24T05:21:50;37.20;;;24.30;;
20589;SDS011;10453;50.810;12.540;2023-06-24T05:26:07;33.63;;;24.65;;
20589;SDS011;10453;50.810;12.540;2023-06-24T05:30:25;66.28;;;34.00;;
20589;SDS011;10453;50.810;12.540;2023-06-24T05:34:43;47.53;;;28.13;;
20589;SDS011;10453;50.810;12.540;2023-06-24T05:39:00;44.33;;;26.55;;
20589;SDS011;10453;50.810;12.540;2023-06-24T05:43:18;69.53;;;35.65;;
20589;SDS011;10453;50.810;12.540;2023-06-24T05:47:35;42.38;;;29.10;;
20589;SDS011;10453;50.810;12.540;2023-06-24T05:51:53;44.55;;;29.23;;
20589;SDS011;10453;50.810;12.540;2023-06-24T05:56:11;51.08;;;31.88;;
20589;SDS011;10453;50.810;12.540;2023-06-24T06:00:28;57.88;;;34.97;;
20589;SDS011;10453;50.810;12.540;2023-06-24T06:04:46;49.40;;;32.47;;
20589;SDS011;10453;50.810;12.540;2023-06-24T06:09:04;51.40;;;34.15;;
20589;SDS011;10453;50.810;12.540;2023-06-24T06:17:40;44.08;;;32.13;;
20589;SDS011;10453;50.810;12.540;2023-06-24T06:21:58;47.45;;;33.38;;
20589;SDS011;10453;50.810;12.540;2023-06-24T06:26:15;59.15;;;37.00;;
20589;SDS011;10453;50.810;12.540;2023-06-24T06:30:32;49.72;;;36.55;;
20589;SDS011;10453;50.810;12.540;2023-06-24T06:34:50;62.22;;;39.92;;
20589;SDS011;10453;50.810;12.540;2023-06-24T06:39:07;35.75;;;31.50;;
20589;SDS011;10453;50.810;12.540;2023-06-24T06:43:25;41.07;;;33.00;;
20589;SDS011;10453;50.810;12.540;2023-06-24T06:47:43;42.88;;;33.47;;
20589;SDS011;10453;50.810;12.540;2023-06-24T06:52:00;47.78;;;35.45;;
20589;SDS011;10453;50.810;12.540;2023-06-24T06:56:18;36.13;;;27.38;;
20589;SDS011;10453;50.810;12.540;2023-06-24T07:00:39;32.60;;;27.00;;
20589;SDS011;10453;50.810;12.540;2023-06-24T07:04:56;31.52;;;27.90;;
20589;SDS011;10453;50.810;12.540;2023-06-24T07:09:14;32.63;;;29.00;;
20589;SDS011;10453;50.810;12.540;2023-06-24T07:13:31;37.30;;;32.37;;
20589;SDS011;10453;50.810;12.540;2023-06-24T07:17:49;29.92;;;26.92;;
20589;SDS011;10453;50.810;12.540;2023-06-24T07:22:06;32.20;;;28.75;;
20589;SDS011;10453;50.810;12.540;2023-06-24T07:26:24;32.45;;;29.08;;
20589;SDS011;10453;50.810;12.540;2023-06-24T07:30:41;31.08;;;27.90;;
20589;SDS011;10453;50.810;12.540;2023-06-24T07:34:58;31.65;;;28.40;;
20589;SDS011;10453;50.810;12.540;2023-06-24T07:39:16;30.23;;;26.95;;
20589;SDS011;10453;50.810;12.540;2023-06-24T07:43:33;24.98;;;22.35;;
20589;SDS011;10453;50.810;12.540;2023-06-24T07:47:51;25.52;;;23.00;;
20589;SDS011;10453;50.810;12.540;2023-06-24T07:52:08;24.30;;;21.90;;
20589;SDS011;10453;50.810;12.540;2023-06-24T07:56:25;25.85;;;23.48;;
20589;SDS011;10453;50.810;12.540;2023-06-24T08:00:43;23.45;;;20.95;;
20589;SDS011;10453;50.810;12.540;2023-06-24T08:05:00;25.00;;;22.60;;
20589;SDS011;10453;50.810;12.540;2023-06-24T08:09:17;29.40;;;25.75;;
20589;SDS011;10453;50.810;12.540;2023-06-24T08:13:35;27.02;;;24.20;;
20589;SDS011;10453;50.810;12.540;2023-06-24T08:17:53;20.02;;;18.02;;
20589;SDS011;10453;50.810;12.540;2023-06-24T08:22:11;20.88;;;17.92;;
20589;SDS011;10453;50.810;12.540;2023-06-24T08:26:28;18.75;;;16.15;;
20589;SDS011;10453;50.810;12.540;2023-06-24T08:30:45;17.05;;;13.95;;
20589;SDS011;10453;50.810;12.540;2023-06-24T08:35:03;13.90;;;12.48;;
20589;SDS011;10453;50.810;12.540;2023-06-24T08:39:21;10.17;;;8.97;;
20589;SDS011;10453;50.810;12.540;2023-06-24T08:43:38;11.07;;;9.43;;
20589;SDS011;10453;50.810;12.540;2023-06-24T08:47:57;11.73;;;8.00;;
20589;SDS011;10453;50.810;12.540;2023-06-24T08:52:18;9.20;;;6.30;;
20589;SDS011;10453;50.810;12.540;2023-06-24T08:56:37;10.48;;;7.40;;
20589;SDS011;10453;50.810;12.540;2023-06-24T09:00:57;10.57;;;7.15;;
20589;SDS011;10453;50.810;12.540;2023-06-24T09:05:14;8.57;;;7.57;;
20589;SDS011;10453;50.810;12.540;2023-06-24T09:09:32;8.25;;;7.15;;
20589;SDS011;10453;50.810;12.540;2023-06-24T09:13:58;8.55;;;7.47;;
20589;SDS011;10453;50.810;12.540;2023-06-24T09:18:17;8.90;;;8.10;;
20589;SDS011;10453;50.810;12.540;2023-06-24T09:22:34;8.75;;;7.10;;
20589;SDS011;10453;50.810;12.540;2023-06-24T09:26:55;8.90;;;8.00;;
20589;SDS011;10453;50.810;12.540;2023-06-24T09:31:13;9.60;;;7.95;;
20589;SDS011;10453;50.810;12.540;2023-06-24T09:35:35;8.82;;;7.47;;
20589;SDS011;10453;50.810;12.540;2023-06-24T09:44:13;8.90;;;8.18;;
20589;SDS011;10453;50.810;12.540;2023-06-24T09:48:34;8.02;;;7.10;;
20589;SDS011;10453;50.810;12.540;2023-06-24T09:52:54;8.00;;;7.20;;
20589;SDS011;10453;50.810;12.540;2023-06-24T09:57:14;8.48;;;7.18;;
20589;SDS011;10453;50.810;12.540;2023-06-24T10:01:37;7.55;;;6.88;;
20589;SDS011;10453;50.810;12.540;2023-06-24T10:05:56;9.25;;;7.32;;
20589;SDS011;10453;50.810;12.540;2023-06-24T10:10:14;10.30;;;7.35;;
20589;SDS011;10453;50.810;12.540;2023-06-24T10:14:31;8.32;;;7.53;;
20589;SDS011;10453;50.810;12.540;2023-06-24T10:23:07;9.82;;;8.13;;
20589;SDS011;10453;50.810;12.540;2023-06-24T10:27:25;10.48;;;7.47;;
20589;SDS011;10453;50.810;12.540;2023-06-24T10:31:50;10.32;;;7.20;;
20589;SDS011;10453;50.810;12.540;2023-06-24T10:36:30;8.50;;;6.93;;
20589;SDS011;10453;50.810;12.540;2023-06-24T10:40:49;10.40;;;7.10;;
20589;SDS011;10453;50.810;12.540;2023-06-24T10:49:27;8.50;;;6.78;;
20589;SDS011;10453;50.810;12.540;2023-06-24T10:53:44;6.80;;;6.13;;
20589;SDS011;10453;50.810;12.540;2023-06-24T10:58:11;7.03;;;6.33;;
20589;SDS011;10453;50.810;12.540;2023-06-24T11:02:31;7.65;;;6.28;;
20589;SDS011;10453;50.810;12.540;2023-06-24T11:07:01;7.85;;;6.25;;
20589;SDS011;10453;50.810;12.540;2023-06-24T11:11:19;7.38;;;6.18;;
20589;SDS011;10453;50.810;12.540;2023-06-24T11:15:39;8.25;;;6.40;;
20589;SDS011;10453;50.810;12.540;2023-06-24T11:20:00;8.20;;;6.10;;
20589;SDS011;10453;50.810;12.540;2023-06-24T11:24:19;6.53;;;5.68;;
20589;SDS011;10453;50.810;12.540;2023-06-24T11:28:37;7.93;;;6.10;;
20589;SDS011;10453;50.810;12.540;2023-06-24T11:32:54;6.28;;;5.53;;
20589;SDS011;10453;50.810;12.540;2023-06-24T11:37:12;6.03;;;5.45;;
20589;SDS011;10453;50.810;12.540;2023-06-24T11:41:31;6.10;;;5.50;;
20589;SDS011;10453;50.810;12.540;2023-06-24T11:45:48;7.07;;;5.13;;
20589;SDS011;10453;50.810;12.540;2023-06-24T11:50:06;8.63;;;5.40;;
20589;SDS011;10453;50.810;12.540;2023-06-24T11:54:25;5.85;;;5.20;;
20589;SDS011;10453;50.810;12.540;2023-06-24T11:58:42;8.07;;;5.70;;
20589;SDS011;10453;50.810;12.540;2023-06-24T12:07:19;7.45;;;5.03;;
20589;SDS011;10453;50.810;12.540;2023-06-24T12:11:37;5.97;;;5.47;;
20589;SDS011;10453;50.810;12.540;2023-06-24T12:15:54;5.30;;;4.80;;
20589;SDS011;10453;50.810;12.540;2023-06-24T12:20:11;6.50;;;4.68;;
20589;SDS011;10453;50.810;12.540;2023-06-24T12:24:31;5.57;;;4.97;;
20589;SDS011;10453;50.810;12.540;2023-06-24T12:28:49;5.75;;;5.18;;
20589;SDS011;10453;50.810;12.540;2023-06-24T12:33:06;5.83;;;5.30;;
20589;SDS011;10453;50.810;12.540;2023-06-24T12:37:28;5.63;;;5.07;;
20589;SDS011;10453;50.810;12.540;2023-06-24T12:41:49;5.47;;;4.90;;
20589;SDS011;10453;50.810;12.540;2023-06-24T12:46:06;6.93;;;5.13;;
20589;SDS011;10453;50.810;12.540;2023-06-24T12:50:23;5.88;;;5.20;;
20589;SDS011;10453;50.810;12.540;2023-06-24T12:54:41;9.43;;;4.63;;
20589;SDS011;10453;50.810;12.540;2023-06-24T12:58:58;8.07;;;5.18;;
20589;SDS011;10453;50.810;12.540;2023-06-24T13:03:15;5.93;;;5.28;;
20589;SDS011;10453;50.810;12.540;2023-06-24T13:07:33;5.50;;;5.00;;
20589;SDS011;10453;50.810;12.540;2023-06-24T13:11:50;8.60;;;4.60;;
20589;SDS011;10453;50.810;12.540;2023-06-24T13:16:08;7.10;;;4.97;;
20589;SDS011;10453;50.810;12.540;2023-06-24T13:20:25;5.03;;;4.55;;
20589;SDS011;10453;50.810;12.540;2023-06-24T13:24:43;5.57;;;5.00;;
20589;SDS011;10453;50.810;12.540;2023-06-24T13:29:00;6.30;;;5.17;;
20589;SDS011;10453;50.810;12.540;2023-06-24T13:33:19;7.85;;;4.85;;
20589;SDS011;10453;50.810;12.540;2023-06-24T13:37:37;6.77;;;4.50;;
20589;SDS011;10453;50.810;12.540;2023-06-24T13:41:56;4.50;;;4.10;;
20589;SDS011;10453;50.810;12.540;2023-06-24T13:50:31;5.00;;;4.50;;
20589;SDS011;10453;50.810;12.540;2023-06-24T13:54:48;5.20;;;4.70;;
20589;SDS011;10453;50.810;12.540;2023-06-24T13:59:05;5.83;;;5.10;;
20589;SDS011;10453;50.810;12.540;2023-06-24T14:03:22;4.65;;;4.18;;
20589;SDS011;10453;50.810;12.540;2023-06-24T14:07:40;7.80;;;4.70;;
20589;SDS011;10453;50.810;12.540;2023-06-24T14:11:57;6.37;;;4.97;;
20589;SDS011;10453;50.810;12.540;2023-06-24T14:16:15;4.57;;;4.10;;
20589;SDS011;10453;50.810;12.540;2023-06-24T14:20:33;5.30;;;4.80;;
20589;SDS011;10453;50.810;12.540;2023-06-24T14:24:51;4.32;;;3.92;;
20589;SDS011;10453;50.810;12.540;2023-06-24T14:29:08;6.40;;;4.40;;
20589;SDS011;10453;50.810;12.540;2023-06-24T14:33:26;7.17;;;4.40;;
20589;SDS011;10453;50.810;12.540;2023-06-24T14:37:43;5.17;;;3.83;;
20589;SDS011;10453;50.810;12.540;2023-06-24T14:42:00;5.17;;;4.67;;
20589;SDS011;10453;50.810;12.540;2023-06-24T14:46:18;4.45;;;4.05;;
20589;SDS011;10453;50.810;12.540;2023-06-24T14:50:35;7.67;;;4.60;;
20589;SDS011;10453;50.810;12.540;2023-06-24T14:54:53;7.15;;;4.25;;
20589;SDS011;10453;50.810;12.540;2023-06-24T14:59:10;5.77;;;4.40;;
20589;SDS011;10453;50.810;12.540;2023-06-24T15:03:27;3.83;;;3.53;;
20589;SDS011;10453;50.810;12.540;2023-06-24T15:07:45;4.37;;;3.97;;
20589;SDS011;10453;50.810;12.540;2023-06-24T15:12:02;5.73;;;3.90;;
20589;SDS011;10453;50.810;12.540;2023-06-24T15:16:20;4.30;;;3.90;;
20589;SDS011;10453;50.810;12.540;2023-06-24T15:20:37;4.77;;;4.20;;
20589;SDS011;10453;50.810;12.540;2023-06-24T15:24:54;6.80;;;4.18;;
20589;SDS011;10453;50.810;12.540;2023-06-24T15:29:12;5.70;;;4.00;;
20589;SDS011;10453;50.810;12.540;2023-06-24T15:33:29;4.20;;;3.80;;
20589;SDS011;10453;50.810;12.540;2023-06-24T15:37:46;3.50;;;3.20;;
20589;SDS011;10453;50.810;12.540;2023-06-24T15:42:04;4.63;;;4.23;;
20589;SDS011;10453;50.810;12.540;2023-06-24T15:46:21;6.37;;;4.13;;
20589;SDS011;10453;50.810;12.540;2023-06-24T15:50:39;5.13;;;4.18;;
20589;SDS011;10453;50.810;12.540;2023-06-24T15:54:57;5.63;;;4.05;;
20589;SDS011;10453;50.810;12.540;2023-06-24T15:59:14;4.50;;;4.00;;
20589;SDS011;10453;50.810;12.540;2023-06-24T16:03:31;4.78;;;4.00;;
20589;SDS011;10453;50.810;12.540;2023-06-24T16:07:49;7.77;;;4.57;;
20589;SDS011;10453;50.810;12.540;2023-06-24T16:12:06;6.00;;;4.80;;
20589;SDS011;10453;50.810;12.540;2023-06-24T16:16:26;5.95;;;4.20;;
20589;SDS011;10453;50.810;12.540;2023-06-24T16:20:43;4.35;;;3.95;;
20589;SDS011;10453;50.810;12.540;2023-06-24T16:25:01;5.13;;;4.30;;
20589;SDS011;10453;50.810;12.540;2023-06-24T16:29:18;4.97;;;4.40;;
20589;SDS011;10453;50.810;12.540;2023-06-24T16:33:36;8.50;;;4.75;;
20589;SDS011;10453;50.810;12.540;2023-06-24T16:37:53;7.03;;;4.07;;
20589;SDS011;10453;50.810;12.540;2023-06-24T16:42:11;5.30;;;4.35;;
20589;SDS011;10453;50.810;12.540;2023-06-24T16:46:28;5.35;;;4.53;;
20589;SDS011;10453;50.810;12.540;2023-06-24T16:50:45;5.78;;;4.25;;
20589;SDS011;10453;50.810;12.540;2023-06-24T16:55:03;6.88;;;4.80;;
20589;SDS011;10453;50.810;12.540;2023-06-24T16:59:20;5.18;;;4.03;;
20589;SDS011;10453;50.810;12.540;2023-06-24T17:03:38;5.57;;;4.15;;
20589;SDS011;10453;50.810;12.540;2023-06-24T17:07:55;5.07;;;4.20;;
20589;SDS011;10453;50.810;12.540;2023-06-24T17:12:12;6.45;;;4.43;;
20589;SDS011;10453;50.810;12.540;2023-06-24T17:16:30;5.53;;;5.03;;
20589;SDS011;10453;50.810;12.540;2023-06-24T17:20:47;7.05;;;4.50;;
20589;SDS011;10453;50.810;12.540;2023-06-24T17:25:05;4.78;;;4.25;;
20589;SDS011;10453;50.810;12.540;2023-06-24T17:29:22;7.45;;;4.82;;
20589;SDS011;10453;50.810;12.540;2023-06-24T17:33:40;7.10;;;4.75;;
20589;SDS011;10453;50.810;12.540;2023-06-24T17:37:57;6.03;;;4.25;;
20589;SDS011;10453;50.810;12.540;2023-06-24T17:42:14;5.20;;;4.50;;
20589;SDS011;10453;50.810;12.540;2023-06-24T17:46:32;8.98;;;5.28;;
20589;SDS011;10453;50.810;12.540;2023-06-24T17:50:49;5.30;;;4.80;;
20589;SDS011;10453;50.810;12.540;2023-06-24T17:55:07;6.57;;;5.30;;
20589;SDS011;10453;50.810;12.540;2023-06-24T17:59:24;5.95;;;5.40;;
20589;SDS011;10453;50.810;12.540;2023-06-24T18:03:43;7.13;;;4.88;;
20589;SDS011;10453;50.810;12.540;2023-06-24T18:08:03;9.68;;;4.95;;
20589;SDS011;10453;50.810;12.540;2023-06-24T18:12:20;5.07;;;4.57;;
20589;SDS011;10453;50.810;12.540;2023-06-24T18:16:39;6.00;;;5.40;;
20589;SDS011;10453;50.810;12.540;2023-06-24T18:25:15;9.10;;;5.93;;
20589;SDS011;10453;50.810;12.540;2023-06-24T18:29:32;7.43;;;5.38;;
20589;SDS011;10453;50.810;12.540;2023-06-24T18:33:50;8.15;;;5.50;;
20589;SDS011;10453;50.810;12.540;2023-06-24T18:38:08;9.63;;;5.47;;
20589;SDS011;10453;50.810;12.540;2023-06-24T18:42:26;6.13;;;5.43;;
20589;SDS011;10453;50.810;12.540;2023-06-24T18:46:43;7.18;;;5.05;;
20589;SDS011;10453;50.810;12.540;2023-06-24T18:51:00;5.68;;;5.07;;
20589;SDS011;10453;50.810;12.540;2023-06-24T18:55:18;9.00;;;5.25;;
20589;SDS011;10453;50.810;12.540;2023-06-24T18:59:35;9.88;;;6.10;;
20589;SDS011;10453;50.810;12.540;2023-06-24T19:03:52;8.52;;;5.80;;
20589;SDS011;10453;50.810;12.540;2023-06-24T19:08:11;8.95;;;7.35;;
20589;SDS011;10453;50.810;12.540;2023-06-24T19:12:29;7.53;;;6.40;;
20589;SDS011;10453;50.810;12.540;2023-06-24T19:16:46;13.80;;;6.93;;
20589;SDS011;10453;50.810;12.540;2023-06-24T19:21:03;9.55;;;6.55;;
20589;SDS011;10453;50.810;12.540;2023-06-24T19:25:20;9.77;;;7.00;;
20589;SDS011;10453;50.810;12.540;2023-06-24T19:29:38;8.10;;;6.45;;
20589;SDS011;10453;50.810;12.540;2023-06-24T19:33:55;7.80;;;6.30;;
20589;SDS011;10453;50.810;12.540;2023-06-24T19:38:13;7.80;;;6.80;;
20589;SDS011;10453;50.810;12.540;2023-06-24T19:42:31;13.13;;;7.95;;
20589;SDS011;10453;50.810;12.540;2023-06-24T19:46:48;9.07;;;8.02;;
20589;SDS011;10453;50.810;12.540;2023-06-24T19:51:09;11.93;;;8.38;;
20589;SDS011;10453;50.810;12.540;2023-06-24T19:55:27;11.80;;;8.73;;
20589;SDS011;10453;50.810;12.540;2023-06-24T19:59:44;8.55;;;7.75;;
20589;SDS011;10453;50.810;12.540;2023-06-24T20:04:01;11.65;;;8.75;;
20589;SDS011;10453;50.810;12.540;2023-06-24T20:08:19;9.80;;;8.15;;
20589;SDS011;10453;50.810;12.540;2023-06-24T20:12:37;9.88;;;8.45;;
20589;SDS011;10453;50.810;12.540;2023-06-24T20:16:54;9.50;;;8.65;;
20589;SDS011;10453;50.810;12.540;2023-06-24T20:21:11;10.70;;;9.23;;
20589;SDS011;10453;50.810;12.540;2023-06-24T20:25:30;9.80;;;8.80;;
20589;SDS011;10453;50.810;12.540;2023-06-24T20:29:48;11.57;;;9.90;;
20589;SDS011;10453;50.810;12.540;2023-06-24T20:34:06;11.25;;;8.50;;
20589;SDS011;10453;50.810;12.540;2023-06-24T20:38:23;12.75;;;10.77;;
20589;SDS011;10453;50.810;12.540;2023-06-24T20:42:42;12.32;;;10.85;;
20589;SDS011;10453;50.810;12.540;2023-06-24T20:46:59;14.38;;;12.18;;
20589;SDS011;10453;50.810;12.540;2023-06-24T20:51:17;12.98;;;10.40;;
20589;SDS011;10453;50.810;12.540;2023-06-24T20:55:34;11.80;;;9.48;;
20589;SDS011;10453;50.810;12.540;2023-06-24T20:59:51;10.77;;;9.65;;
20589;SDS011;10453;50.810;12.540;2023-06-24T21:04:09;11.52;;;10.30;;
20589;SDS011;10453;50.810;12.540;2023-06-24T21:08:29;14.43;;;10.23;;
20589;SDS011;10453;50.810;12.540;2023-06-24T21:12:46;13.80;;;11.48;;
20589;SDS011;10453;50.810;12.540;2023-06-24T21:17:14;18.80;;;14.80;;
20589;SDS011;10453;50.810;12.540;2023-06-24T21:21:32;25.73;;;19.58;;
20589;SDS011;10453;50.810;12.540;2023-06-24T21:25:52;18.75;;;16.83;;
20589;SDS011;10453;50.810;12.540;2023-06-24T21:30:12;19.05;;;15.63;;
20589;SDS011;10453;50.810;12.540;2023-06-24T21:34:29;16.83;;;14.15;;
20589;SDS011;10453;50.810;12.540;2023-06-24T21:38:46;14.27;;;11.75;;
20589;SDS011;10453;50.810;12.540;2023-06-24T21:43:04;16.98;;;12.88;;
20589;SDS011;10453;50.810;12.540;2023-06-24T21:47:21;14.88;;;9.88;;
20589;SDS011;10453;50.810;12.540;2023-06-24T21:51:39;17.77;;;13.25;;
20589;SDS011;10453;50.810;12.540;2023-06-24T21:55:57;14.18;;;10.30;;
20589;SDS011;10453;50.810;12.540;2023-06-24T22:00:14;15.93;;;12.05;;
20589;SDS011;10453;50.810;12.540;2023-06-24T22:04:34;17.05;;;13.80;;
20589;SDS011;10453;50.810;12.540;2023-06-24T22:08:51;15.20;;;13.23;;
20589;SDS011;10453;50.810;12.540;2023-06-24T22:13:09;13.93;;;12.38;;
20589;SDS011;10453;50.810;12.540;2023-06-24T22:17:26;14.63;;;11.52;;
20589;SDS011;10453;50.810;12.540;2023-06-24T22:21:44;18.93;;;15.50;;
20589;SDS011;10453;50.810;12.540;2023-06-24T22:26:01;13.15;;;10.38;;
20589;SDS011;10453;50.810;12.540;2023-06-24T22:30:19;15.68;;;10.57;;
20589;SDS011;10453;50.810;12.540;2023-06-24T22:34:36;18.00;;;11.20;;
20589;SDS011;10453;50.810;12.540;2023-06-24T22:38:54;15.63;;;10.20;;
20589;SDS011;10453;50.810;12.540;2023-06-24T22:43:11;14.10;;;11.48;;
20589;SDS011;10453;50.810;12.540;2023-06-24T22:47:28;16.33;;;11.63;;
20589;SDS011;10453;50.810;12.540;2023-06-24T22:51:45;13.35;;;10.43;;
20589;SDS011;10453;50.810;12.540;2023-06-24T22:56:03;13.75;;;11.07;;
20589;SDS011;10453;50.810;12.540;2023-06-24T23:00:21;18.85;;;11.68;;
20589;SDS011;10453;50.810;12.540;2023-06-24T23:04:39;17.85;;;10.70;;
20589;SDS011;10453;50.810;12.540;2023-06-24T23:08:56;12.70;;;11.27;;
20589;SDS011;10453;50.810;12.540;2023-06-24T23:13:14;15.20;;;12.37;;
20589;SDS011;10453;50.810;12.540;2023-06-24T23:17:32;14.93;;;11.35;;
20589;SDS011;10453;50.810;12.540;2023-06-24T23:21:50;14.45;;;12.52;;
20589;SDS011;10453;50.810;12.540;2023-06-24T23:26:08;13.57;;;11.43;;
20589;SDS011;10453;50.810;12.540;2023-06-24T23:30:27;18.63;;;12.52;;
20589;SDS011;10453;50.810;12.540;2023-06-24T23:34:47;15.55;;;11.57;;
20589;SDS011;10453;50.810;12.540;2023-06-24T23:39:04;19.80;;;12.98;;
20589;SDS011;10453;50.810;12.540;2023-06-24T23:43:22;18.40;;;13.63;;
20589;SDS011;10453;50.810;12.540;2023-06-24T23:47:39;18.10;;;14.10;;
20589;SDS011;10453;50.810;12.540;2023-06-24T23:51:57;20.13;;;13.88;;
20589;SDS011;10453;50.810;12.540;2023-06-24T23:56:14;18.52;;;14.38;;
